createdAt,value
2018-11-22T00:02:18.428Z,40.65
2018-11-22T00:04:46.523Z,43.25
2018-11-22T00:07:14.692Z,41.90
2018-11-22T00:09:42.836Z,40.55
2018-11-22T00:12:10.953Z,42.95
2018-11-22T00:14:39.117Z,38.67
2018-11-22T00:17:07.236Z,43.08
2018-11-22T00:19:35.344Z,43.15
2018-11-22T00:22:03.870Z,38.65
2018-11-22T00:24:31.982Z,34.65
2018-11-22T00:27:00.136Z,38.00
2018-11-22T00:29:28.303Z,51.00
2018-11-22T00:31:56.516Z,46.63
2018-11-22T00:34:24.614Z,42.48
2018-11-22T00:36:52.759Z,39.55
2018-11-22T00:39:20.879Z,43.55
2018-11-22T00:41:48.973Z,40.50
2018-11-22T00:44:17.098Z,35.73
2018-11-22T00:46:45.185Z,35.70
2018-11-22T00:49:13.298Z,38.45
2018-11-22T00:51:41.394Z,37.23
2018-11-22T00:54:09.544Z,42.33
2018-11-22T00:56:37.666Z,41.20
2018-11-22T00:59:05.774Z,44.53
2018-11-22T01:01:33.908Z,42.25
2018-11-22T01:04:01.977Z,41.70
2018-11-22T01:06:30.099Z,44.93
2018-11-22T01:08:58.254Z,38.78
2018-11-22T01:11:26.337Z,38.00
2018-11-22T01:13:54.504Z,44.27
2018-11-22T01:16:22.612Z,38.30
2018-11-22T01:18:50.709Z,42.03
2018-11-22T01:21:18.832Z,43.52
2018-11-22T01:23:46.933Z,46.77
2018-11-22T01:26:15.011Z,37.05
2018-11-22T01:28:43.122Z,42.45
2018-11-22T01:31:11.401Z,37.03
2018-11-22T01:33:39.521Z,43.00
2018-11-22T01:36:07.638Z,41.48
2018-11-22T01:38:35.716Z,35.50
2018-11-22T01:41:03.818Z,43.30
2018-11-22T01:43:31.952Z,38.78
2018-11-22T01:46:00.070Z,41.48
2018-11-22T01:48:28.178Z,38.83
2018-11-22T01:50:56.329Z,35.55
2018-11-22T01:53:24.502Z,36.30
2018-11-22T01:55:52.575Z,39.95
2018-11-22T01:58:20.702Z,41.60
2018-11-22T02:00:48.822Z,34.27
2018-11-22T02:03:16.908Z,34.98
2018-11-22T02:05:45.036Z,43.13
2018-11-22T02:08:13.134Z,48.55
2018-11-22T02:10:41.224Z,39.08
2018-11-22T02:13:09.325Z,45.40
2018-11-22T02:15:37.427Z,36.13
2018-11-22T02:18:05.592Z,44.80
2018-11-22T02:20:33.781Z,45.98
2018-11-22T02:23:01.904Z,48.13
2018-11-22T02:25:30.395Z,43.95
2018-11-22T02:27:58.537Z,44.88
2018-11-22T02:30:27.736Z,38.48
2018-11-22T02:32:57.088Z,40.92
2018-11-22T02:35:25.568Z,40.52
2018-11-22T02:37:53.682Z,45.05
2018-11-22T02:40:22.645Z,40.50
2018-11-22T02:42:51.703Z,50.92
2018-11-22T02:45:21.192Z,42.90
2018-11-22T02:47:49.310Z,33.10
2018-11-22T02:50:21.053Z,39.67
2018-11-22T02:52:49.591Z,48.38
2018-11-22T02:55:17.714Z,41.37
2018-11-22T02:57:45.893Z,42.70
2018-11-22T03:00:42.433Z,44.10
2018-11-22T03:03:11.601Z,44.35
2018-11-22T03:05:39.722Z,40.65
2018-11-22T03:08:07.892Z,45.23
2018-11-22T03:10:36.006Z,46.05
2018-11-22T03:13:04.136Z,45.43
2018-11-22T03:15:32.232Z,41.33
2018-11-22T03:18:00.386Z,45.67
2018-11-22T03:20:28.549Z,37.05
2018-11-22T03:22:56.654Z,45.25
2018-11-22T03:25:24.734Z,41.18
2018-11-22T03:27:53.241Z,45.75
2018-11-22T03:30:22.364Z,44.88
2018-11-22T03:32:50.486Z,42.25
2018-11-22T03:35:22.807Z,41.23
2018-11-22T03:37:50.969Z,36.55
2018-11-22T03:40:20.530Z,38.30
2018-11-22T03:42:48.649Z,43.78
2018-11-22T03:45:17.361Z,46.18
2018-11-22T03:47:45.622Z,41.45
2018-11-22T03:50:15.317Z,35.65
2018-11-22T03:52:44.361Z,44.42
2018-11-22T03:55:13.819Z,40.85
2018-11-22T03:57:42.315Z,44.73
2018-11-22T04:00:13.382Z,47.38
2018-11-22T04:02:44.361Z,42.30
2018-11-22T04:05:12.352Z,47.25
2018-11-22T04:07:40.569Z,42.93
2018-11-22T04:10:13.162Z,40.67
2018-11-22T04:12:41.487Z,40.73
2018-11-22T04:15:10.443Z,44.45
2018-11-22T04:17:38.550Z,47.35
2018-11-22T04:20:08.763Z,40.60
2018-11-22T04:22:36.902Z,35.48
2018-11-22T04:25:06.222Z,46.68
2018-11-22T04:27:34.553Z,39.55
2018-11-22T04:30:02.672Z,44.70
2018-11-22T04:32:30.801Z,41.20
2018-11-22T04:34:58.966Z,46.35
2018-11-22T04:37:29.490Z,43.45
2018-11-22T04:39:59.187Z,39.83
2018-11-22T04:42:36.077Z,38.25
2018-11-22T04:45:06.843Z,47.98
2018-11-22T04:47:34.994Z,44.42
2018-11-22T04:50:03.114Z,43.90
2018-11-22T04:52:31.267Z,44.30
2018-11-22T04:54:59.392Z,40.43
2018-11-22T04:57:30.720Z,38.85
2018-11-22T05:00:07.225Z,46.18
2018-11-22T05:02:34.127Z,40.83
2018-11-22T05:05:04.527Z,43.25
2018-11-22T05:07:32.816Z,41.35
2018-11-22T05:10:01.055Z,38.08
2018-11-22T05:12:29.291Z,40.67
2018-11-22T05:14:57.391Z,36.35
2018-11-22T05:17:25.523Z,42.10
2018-11-22T05:19:53.640Z,40.65
2018-11-22T05:22:21.755Z,41.37
2018-11-22T05:24:49.910Z,40.95
2018-11-22T05:27:17.977Z,42.48
2018-11-22T05:29:46.228Z,40.92
2018-11-22T05:32:14.354Z,38.25
2018-11-22T05:34:42.496Z,37.50
2018-11-22T05:37:14.287Z,43.35
2018-11-22T05:39:40.032Z,40.33
2018-11-22T05:42:08.121Z,40.75
2018-11-22T05:44:36.231Z,45.78
2018-11-22T05:47:04.342Z,63.13
2018-11-22T05:49:41.272Z,40.80
2018-11-22T05:52:09.357Z,44.20
2018-11-22T05:54:37.496Z,45.30
2018-11-22T05:57:05.779Z,48.02
2018-11-22T05:59:33.943Z,36.20
2018-11-22T06:02:02.016Z,39.45
2018-11-22T06:04:30.131Z,47.25
2018-11-22T06:06:58.311Z,37.80
2018-11-22T06:09:26.452Z,40.48
2018-11-22T06:11:54.583Z,41.28
2018-11-22T06:14:22.752Z,46.42
2018-11-22T06:16:50.902Z,38.70
2018-11-22T06:19:21.102Z,45.60
2018-11-22T06:21:49.255Z,45.88
2018-11-22T06:24:17.389Z,38.23
2018-11-22T06:26:45.477Z,41.50
2018-11-22T06:29:13.705Z,41.37
2018-11-22T06:31:41.814Z,45.17
2018-11-22T06:34:10.001Z,43.55
2018-11-22T06:36:38.161Z,38.40
2018-11-22T06:39:07.997Z,42.48
2018-11-22T06:41:36.244Z,45.55
2018-11-22T06:44:04.737Z,49.55
2018-11-22T06:46:32.852Z,42.67
2018-11-22T06:49:00.979Z,45.90
2018-11-22T06:51:29.106Z,50.35
2018-11-22T06:53:57.240Z,37.42
2018-11-22T06:56:25.423Z,43.40
2018-11-22T06:58:53.571Z,42.45
2018-11-22T07:01:24.521Z,42.55
2018-11-22T07:03:52.731Z,41.10
2018-11-22T07:06:20.905Z,43.35
2018-11-22T07:08:48.994Z,44.40
2018-11-22T07:11:17.340Z,45.23
2018-11-22T07:13:45.603Z,44.40
2018-11-22T07:16:13.740Z,44.55
2018-11-22T07:18:41.839Z,57.90
2018-11-22T07:21:09.965Z,40.52
2018-11-22T07:23:38.136Z,41.35
2018-11-22T07:26:06.915Z,48.02
2018-11-22T07:28:35.045Z,35.45
2018-11-22T07:31:03.330Z,44.25
2018-11-22T07:33:38.006Z,45.00
2018-11-22T12:16:58.407Z,43.40
2018-11-22T12:19:26.569Z,38.92
2018-11-22T12:21:54.719Z,36.08
2018-11-22T12:24:22.840Z,43.10
2018-11-22T12:26:51.000Z,37.38
2018-11-22T12:29:19.132Z,38.78
2018-11-22T12:31:47.242Z,45.73
2018-11-22T12:34:20.307Z,40.35
2018-11-22T12:36:53.163Z,43.20
2018-11-22T12:39:21.265Z,46.05
2018-11-22T12:41:49.428Z,43.55
2018-11-22T12:44:17.589Z,40.73
2018-11-22T12:46:45.700Z,39.88
2018-11-22T12:49:13.812Z,52.48
2018-11-22T12:51:41.944Z,43.70
2018-11-22T12:54:10.047Z,44.60
2018-11-22T12:56:38.175Z,39.95
2018-11-22T12:59:06.296Z,49.23
2018-11-22T13:01:34.433Z,49.85
2018-11-22T13:04:02.557Z,42.95
2018-11-22T13:06:30.676Z,53.05
2018-11-22T13:08:58.795Z,54.70
2018-11-22T13:11:26.961Z,63.78
2018-11-22T13:13:55.096Z,49.18
2018-11-22T13:16:23.302Z,38.85
2018-11-22T13:18:51.424Z,42.65
2018-11-22T13:21:19.549Z,45.75
2018-11-22T13:23:47.721Z,50.80
2018-11-22T13:26:15.900Z,48.87
2018-11-22T13:28:53.938Z,45.78
2018-11-22T13:31:22.079Z,47.70
2018-11-22T13:33:50.235Z,39.58
2018-11-22T13:36:18.338Z,44.30
2018-11-22T13:38:46.477Z,46.73
2018-11-22T13:41:14.702Z,41.05
2018-11-22T13:43:42.872Z,42.35
2018-11-22T13:46:11.015Z,41.83
2018-11-22T13:48:39.196Z,48.50
2018-11-22T13:51:07.330Z,48.10
2018-11-22T13:53:35.496Z,46.90
2018-11-22T13:56:03.632Z,47.23
2018-11-22T13:58:31.864Z,40.12
2018-11-22T14:01:00.063Z,37.67
2018-11-22T14:03:28.241Z,40.23
2018-11-22T14:05:56.368Z,42.30
2018-11-22T14:08:24.528Z,47.13
2018-11-22T14:10:52.789Z,48.05
2018-11-22T14:13:20.872Z,47.75
2018-11-22T14:15:49.046Z,42.40
2018-11-22T14:18:18.041Z,52.43
2018-11-22T14:20:46.292Z,45.78
2018-11-22T14:23:14.402Z,46.60
2018-11-22T14:25:45.054Z,54.00
2018-11-22T14:28:10.801Z,45.58
2018-11-22T14:30:38.928Z,50.20
2018-11-22T14:33:07.117Z,50.78
2018-11-22T14:35:35.235Z,42.90
2018-11-22T14:38:03.378Z,53.63
2018-11-22T14:40:32.409Z,49.63
2018-11-22T14:43:00.882Z,51.75
2018-11-22T14:45:29.794Z,44.85
2018-11-22T14:47:58.994Z,51.48
2018-11-22T14:50:31.138Z,47.45
2018-11-22T14:53:04.506Z,50.08
2018-11-22T14:55:32.792Z,46.58
2018-11-22T14:58:01.049Z,50.17
2018-11-22T15:00:29.306Z,52.95
2018-11-22T15:02:57.526Z,58.13
2018-11-22T15:05:25.931Z,53.50
2018-11-22T15:07:54.048Z,54.70
2018-11-22T15:10:22.211Z,52.05
2018-11-22T15:12:50.536Z,52.90
2018-11-22T15:15:20.134Z,48.15
2018-11-22T15:17:48.759Z,46.92
2018-11-22T15:20:18.224Z,53.30
2018-11-22T15:22:47.338Z,47.62
2018-11-22T15:25:19.915Z,45.43
2018-11-22T15:27:48.162Z,46.37
2018-11-22T15:30:17.785Z,43.17
2018-11-22T15:32:45.867Z,45.03
2018-11-22T15:35:18.327Z,45.33
2018-11-22T15:37:47.160Z,45.90
2018-11-22T15:40:17.766Z,52.03
2018-11-22T15:42:47.070Z,53.30
2018-11-22T15:45:16.680Z,42.43
2018-11-22T15:47:45.313Z,43.87
2018-11-22T15:50:14.780Z,49.90
2018-11-22T15:52:43.484Z,50.83
2018-11-22T15:55:12.350Z,42.40
2018-11-22T15:57:41.609Z,50.23
2018-11-22T16:00:13.077Z,49.50
2018-11-22T16:02:41.581Z,49.90
2018-11-22T16:05:11.001Z,43.17
2018-11-22T16:07:39.675Z,50.25
2018-11-22T16:10:10.649Z,53.40
2018-11-22T16:12:38.932Z,48.58
2018-11-22T16:15:11.714Z,48.38
2018-11-22T16:17:40.716Z,44.63
2018-11-22T16:20:09.004Z,51.05
2018-11-22T16:22:37.336Z,50.52
2018-11-22T16:25:07.367Z,42.08
2018-11-22T16:27:35.654Z,47.05
2018-11-22T16:30:04.297Z,51.13
2018-11-22T16:32:32.435Z,43.05
2018-11-22T16:35:00.583Z,51.33
2018-11-22T16:37:28.721Z,48.45
2018-11-22T16:39:56.869Z,40.85
2018-11-22T16:42:24.971Z,48.13
2018-11-22T16:44:53.169Z,42.35
2018-11-22T16:47:21.273Z,46.83
2018-11-22T16:49:49.398Z,43.40
2018-11-22T16:52:17.545Z,46.92
2018-11-22T16:54:45.670Z,44.03
2018-11-22T16:57:13.763Z,46.73
2018-11-22T16:59:42.027Z,48.73
2018-11-22T17:02:10.193Z,50.85
2018-11-22T17:04:38.333Z,45.65
2018-11-22T17:07:06.479Z,47.98
2018-11-22T17:09:34.622Z,44.58
2018-11-22T17:12:02.933Z,45.25
2018-11-22T17:14:31.072Z,40.35
2018-11-22T17:16:59.428Z,49.98
2018-11-22T17:19:27.601Z,56.65
2018-11-22T17:21:55.726Z,43.52
2018-11-22T17:24:23.870Z,45.17
2018-11-22T17:26:52.033Z,48.05
2018-11-22T17:29:20.208Z,45.12
2018-11-22T17:31:48.341Z,44.45
2018-11-22T17:34:16.508Z,52.13
2018-11-22T17:36:44.605Z,49.15
2018-11-22T17:39:14.559Z,48.00
2018-11-22T17:41:42.846Z,47.58
2018-11-22T17:44:11.014Z,52.55
2018-11-22T17:46:39.208Z,53.68
2018-11-22T17:49:07.926Z,55.85
2018-11-22T17:51:36.316Z,48.70
2018-11-22T17:54:05.237Z,59.65
2018-11-22T17:56:33.379Z,58.60
2018-11-22T17:59:01.560Z,55.78
2018-11-22T18:01:29.721Z,49.27
2018-11-22T18:03:57.904Z,52.95
2018-11-22T18:06:26.111Z,50.73
2018-11-22T18:08:54.250Z,61.65
2018-11-22T18:11:22.392Z,51.83
2018-11-22T18:13:50.560Z,50.38
2018-11-22T18:16:18.685Z,49.67
2018-11-22T18:18:46.888Z,61.90
2018-11-22T18:21:15.052Z,64.47
2018-11-22T18:23:43.293Z,53.95
2018-11-22T18:26:11.447Z,60.92
2018-11-22T18:28:39.579Z,59.83
2018-11-22T18:31:07.722Z,64.40
2018-11-22T18:33:35.951Z,57.10
2018-11-22T18:36:04.096Z,54.15
2018-11-22T18:38:32.927Z,59.53
2018-11-22T18:41:01.870Z,60.55
2018-11-22T18:43:29.321Z,53.10
2018-11-22T18:45:58.400Z,56.80
2018-11-22T18:48:26.758Z,64.60
2018-11-22T18:50:54.875Z,56.53
2018-11-22T18:53:23.017Z,60.70
2018-11-22T18:55:52.364Z,60.73
2018-11-22T18:58:20.517Z,60.25
2018-11-22T19:00:48.793Z,60.65
2018-11-22T19:03:18.495Z,61.35
2018-11-22T19:05:46.626Z,59.35
2018-11-22T19:08:14.790Z,66.02
2018-11-22T19:10:43.715Z,71.40
2018-11-22T19:13:12.596Z,58.90
2018-11-22T19:15:42.350Z,55.12
2018-11-22T19:18:11.229Z,48.52
2018-11-22T19:20:40.779Z,59.83
2018-11-22T19:23:09.609Z,62.27
2018-11-22T19:25:37.797Z,63.28
2018-11-22T19:28:06.735Z,69.37
2018-11-22T19:30:37.624Z,57.15
2018-11-22T19:33:06.558Z,59.90
2018-11-22T19:35:38.491Z,59.50
2018-11-22T19:38:06.802Z,58.58
2018-11-22T19:40:36.549Z,58.48
2018-11-22T19:43:06.254Z,58.05
2018-11-22T19:45:40.498Z,72.97
2018-11-22T19:48:09.296Z,52.65
2018-11-22T19:50:37.524Z,48.17
2018-11-22T19:53:07.382Z,55.20
2018-11-22T19:55:42.436Z,45.20
2018-11-22T19:58:12.108Z,52.60
2018-11-22T20:03:20.369Z,60.50
2018-11-22T20:05:48.531Z,60.10
2018-11-22T20:08:19.184Z,58.70
2018-11-22T20:10:47.022Z,52.53
2018-11-22T20:13:15.173Z,52.03
2018-11-22T20:15:43.339Z,50.03
2018-11-22T20:18:12.099Z,57.53
2018-11-22T20:20:40.437Z,48.50
2018-11-22T20:23:08.820Z,63.60
2018-11-22T20:25:38.028Z,54.33
2018-11-22T20:28:07.421Z,57.95
2018-11-22T20:30:42.374Z,53.08
2018-11-22T20:33:10.589Z,58.28
2018-11-22T20:35:38.784Z,57.40
2018-11-22T20:38:07.059Z,50.15
2018-11-22T20:40:35.240Z,55.73
2018-11-22T20:43:03.427Z,45.43
2018-11-22T20:45:32.490Z,49.20
2018-11-22T20:48:02.185Z,46.48
2018-11-22T20:50:31.024Z,50.50
2018-11-22T20:52:59.254Z,53.87
2018-11-22T20:55:32.949Z,48.48
2018-11-22T20:58:02.562Z,49.95
2018-11-22T21:00:32.406Z,55.40
2018-11-22T21:03:00.654Z,44.58
2018-11-22T21:05:29.568Z,50.95
2018-11-22T21:07:57.680Z,60.20
2018-11-22T21:10:27.236Z,55.95
2018-11-22T21:12:55.396Z,56.20
2018-11-22T21:15:24.933Z,47.33
2018-11-22T21:17:54.792Z,52.83
2018-11-22T21:20:24.669Z,56.98
2018-11-22T21:22:52.875Z,47.67
2018-11-22T21:25:21.570Z,49.25
2018-11-22T21:27:49.714Z,53.38
2018-11-22T21:30:23.706Z,43.20
2018-11-22T21:32:52.348Z,43.10
2018-11-22T21:35:20.889Z,40.95
2018-11-22T21:37:49.706Z,46.63
2018-11-22T21:40:18.627Z,42.08
2018-11-22T21:42:46.878Z,32.42
2018-11-22T21:45:19.705Z,46.02
2018-11-22T21:47:47.941Z,44.85
2018-11-22T21:50:17.216Z,45.03
2018-11-22T21:52:45.457Z,42.23
2018-11-22T21:55:14.930Z,39.55
2018-11-22T21:57:43.819Z,37.90
2018-11-22T22:00:16.862Z,36.33
2018-11-22T22:02:45.993Z,39.75
2018-11-22T22:05:14.131Z,42.15
2018-11-22T22:07:42.288Z,38.60
2018-11-22T22:10:10.624Z,38.83
2018-11-22T22:12:39.310Z,37.38
2018-11-22T22:15:10.520Z,41.63
2018-11-22T22:17:39.268Z,42.50
2018-11-22T22:20:09.577Z,41.95
2018-11-22T22:22:37.739Z,44.20
2018-11-22T22:25:08.262Z,42.53
2018-11-22T22:27:36.587Z,36.77
2018-11-22T22:30:05.154Z,40.20
2018-11-22T22:32:33.306Z,37.90
2018-11-22T22:35:01.733Z,38.15
2018-11-22T22:37:29.840Z,41.55
2018-11-22T22:40:03.551Z,43.73
2018-11-22T22:42:26.561Z,36.23
2018-11-22T22:44:55.083Z,35.35
2018-11-22T22:47:24.348Z,45.00
2018-11-22T22:49:52.496Z,41.42
2018-11-22T22:52:21.638Z,37.95
2018-11-22T22:54:49.788Z,37.45
2018-11-22T22:57:18.010Z,39.73
2018-11-22T22:59:46.167Z,34.78
2018-11-22T23:02:14.348Z,31.65
2018-11-22T23:04:42.460Z,43.50
2018-11-22T23:07:10.614Z,39.83
2018-11-22T23:09:38.728Z,42.45
2018-11-22T23:12:06.910Z,35.88
2018-11-22T23:14:35.270Z,45.35
2018-11-22T23:17:03.414Z,42.48
2018-11-22T23:19:31.582Z,39.05
2018-11-22T23:21:59.791Z,44.80
2018-11-22T23:24:27.924Z,43.40
2018-11-22T23:26:56.048Z,41.53
2018-11-22T23:29:24.177Z,33.35
2018-11-22T23:31:52.932Z,42.33
2018-11-22T23:34:21.050Z,42.05
2018-11-22T23:36:49.183Z,45.48
2018-11-22T23:39:17.325Z,33.33
2018-11-22T23:41:45.466Z,37.90
2018-11-22T23:44:13.604Z,40.35
2018-11-22T23:46:41.865Z,38.58
2018-11-22T23:49:10.037Z,35.98
2018-11-22T23:51:38.841Z,36.33
2018-11-22T23:54:06.945Z,44.98
2018-11-22T23:56:35.053Z,34.50
2018-11-22T23:59:03.164Z,45.10
